Time;durP1;ratioP1;P1;durP2;ratioP2;P2;SDS_P1;SDS_P2;PMS_P1;PMS_P2;Temp;Humidity;BMP_temperature;BMP_pressure;BME280_temperature;BME280_humidity;BME280_pressure;Samples;Min_cycle;Max_cycle;Signal;HPM_P1;HPM_P2
2024/02/03 00:01:30;;;;;;;2.55;2.17;;;;;;;;;;5020685;28;20053;-68
2024/02/03 00:03:57;;;;;;;3.88;2.45;;;;;;;;;;5043716;28;20422;-67
2024/02/03 00:06:23;;;;;;;4.40;2.53;;;;;;;;;;5039365;28;20112;-70
2024/02/03 00:08:51;;;;;;;2.40;2.10;;;;;;;;;;5046682;28;20040;-67
2024/02/03 00:11:17;;;;;;;3.38;2.10;;;;;;;;;;5027806;28;20114;-67
2024/02/03 00:13:44;;;;;;;2.33;2.08;;;;;;;;;;5042077;28;20099;-67
2024/02/03 00:16:11;;;;;;;3.03;2.30;;;;;;;;;;5028305;28;20120;-67
2024/02/03 00:18:37;;;;;;;2.63;2.00;;;;;;;;;;5032525;28;20113;-67
2024/02/03 00:21:04;;;;;;;2.35;2.15;;;;;;;;;;5024377;28;20106;-70
2024/02/03 00:23:31;;;;;;;2.42;2.20;;;;;;;;;;5028973;28;20138;-69
2024/02/03 00:26:04;;;;;;;2.25;2.05;;;;;;;;;;5017234;28;20037;-66
2024/02/03 00:28:31;;;;;;;2.22;2.05;;;;;;;;;;5026991;28;20029;-67
2024/02/03 00:30:57;;;;;;;2.20;2.00;;;;;;;;;;5042436;28;20018;-68
2024/02/03 00:33:24;;;;;;;2.78;1.92;;;;;;;;;;5038930;28;20231;-68
2024/02/03 00:35:54;;;;;;;2.92;2.20;;;;;;;;;;5007163;28;20938;-67
2024/02/03 00:38:23;;;;;;;3.10;2.33;;;;;;;;;;5029713;28;20021;-69
2024/02/03 00:40:50;;;;;;;3.10;2.10;;;;;;;;;;5020874;28;20021;-68
2024/02/03 00:43:20;;;;;;;4.10;2.40;;;;;;;;;;5026962;28;20030;-69
2024/02/03 00:45:47;;;;;;;2.30;2.10;;;;;;;;;;5026592;28;20029;-67
2024/02/03 00:48:16;;;;;;;2.40;1.85;;;;;;;;;;5038300;28;20434;-67
2024/02/03 00:50:42;;;;;;;2.55;2.33;;;;;;;;;;5049003;28;20025;-67
2024/02/03 00:53:09;;;;;;;3.63;2.97;;;;;;;;;;5036366;28;20021;-67
2024/02/03 00:55:35;;;;;;;5.28;2.75;;;;;;;;;;5048677;28;20044;-68
2024/02/03 00:58:01;;;;;;;3.28;2.72;;;;;;;;;;5055618;28;20025;-67
2024/02/03 01:00:27;;;;;;;2.75;2.30;;;;;;;;;;5030450;28;20040;-67
2024/02/03 01:02:55;;;;;;;1.92;1.77;;;;;;;;;;5056073;28;20029;-69
2024/02/03 01:05:30;;;;;;;2.50;1.98;;;;;;;;;;5051076;28;20017;-67
2024/02/03 01:07:56;;;;;;;2.20;2.00;;;;;;;;;;5033179;28;20523;-68
2024/02/03 01:10:23;;;;;;;2.40;2.20;;;;;;;;;;5044873;28;20124;-69
2024/02/03 01:12:50;;;;;;;2.03;1.88;;;;;;;;;;5034738;28;20029;-67
2024/02/03 01:15:16;;;;;;;2.67;1.85;;;;;;;;;;5051675;28;20051;-67
2024/02/03 01:17:42;;;;;;;1.85;1.70;;;;;;;;;;5032563;28;20430;-67
2024/02/03 01:20:09;;;;;;;2.60;1.80;;;;;;;;;;5033862;28;20027;-67
2024/02/03 01:22:35;;;;;;;2.85;1.98;;;;;;;;;;5049017;28;20044;-67
2024/02/03 01:25:01;;;;;;;1.88;1.70;;;;;;;;;;5014847;28;20029;-68
2024/02/03 01:27:30;;;;;;;1.60;1.50;;;;;;;;;;5032785;28;20036;-69
2024/02/03 01:29:57;;;;;;;1.35;1.30;;;;;;;;;;5052747;28;20044;-68
2024/02/03 01:32:23;;;;;;;1.70;1.60;;;;;;;;;;5050493;28;20029;-67
2024/02/03 01:34:49;;;;;;;2.55;1.70;;;;;;;;;;5046680;28;20031;-68
2024/02/03 01:37:15;;;;;;;1.95;1.75;;;;;;;;;;5041225;28;20097;-68
2024/02/03 01:39:42;;;;;;;1.88;1.77;;;;;;;;;;5050759;28;20033;-67
2024/02/03 01:42:08;;;;;;;2.08;1.58;;;;;;;;;;5044369;28;20029;-68
2024/02/03 01:44:36;;;;;;;1.92;1.73;;;;;;;;;;5030514;28;20115;-68
2024/02/03 01:47:03;;;;;;;2.80;1.77;;;;;;;;;;5036638;28;20481;-68
2024/02/03 01:49:31;;;;;;;4.43;1.83;;;;;;;;;;5047910;28;20028;-68
2024/02/03 01:51:58;;;;;;;1.80;1.70;;;;;;;;;;5032974;28;20096;-70
2024/02/03 01:54:31;;;;;;;1.88;1.77;;;;;;;;;;5050771;28;20025;-67
2024/02/03 01:57:03;;;;;;;2.25;1.63;;;;;;;;;;5027343;28;20025;-68
2024/02/03 01:59:30;;;;;;;1.80;1.70;;;;;;;;;;5031367;28;20032;-68
2024/02/03 02:01:57;;;;;;;2.15;1.92;;;;;;;;;;5028056;28;20040;-67
2024/02/03 02:04:24;;;;;;;2.10;1.65;;;;;;;;;;5052878;28;20040;-67
2024/02/03 02:06:50;;;;;;;4.88;1.88;;;;;;;;;;5036297;28;20044;-67
2024/02/03 02:09:24;;;;;;;2.53;1.83;;;;;;;;;;5037868;28;20099;-67
2024/02/03 02:11:59;;;;;;;1.45;1.35;;;;;;;;;;5046545;28;20068;-67
2024/02/03 02:14:26;;;;;;;1.60;1.50;;;;;;;;;;5037626;28;20025;-67
2024/02/03 02:16:53;;;;;;;1.80;1.70;;;;;;;;;;5047786;28;20025;-67
2024/02/03 02:19:20;;;;;;;1.70;1.60;;;;;;;;;;5028097;28;20313;-67
2024/02/03 02:21:46;;;;;;;1.50;1.40;;;;;;;;;;5047032;28;20167;-67
2024/02/03 02:24:17;;;;;;;1.60;1.50;;;;;;;;;;5052472;28;20029;-67
2024/02/03 02:26:43;;;;;;;1.60;1.50;;;;;;;;;;5046758;28;20024;-66
2024/02/03 02:29:10;;;;;;;1.65;1.55;;;;;;;;;;5037343;28;20034;-68
2024/02/03 02:31:36;;;;;;;2.00;1.83;;;;;;;;;;5045912;28;20056;-67
2024/02/03 02:34:02;;;;;;;1.40;1.30;;;;;;;;;;5044239;28;20034;-67
2024/02/03 02:36:28;;;;;;;1.27;1.23;;;;;;;;;;5047325;28;20099;-67
2024/02/03 02:38:54;;;;;;;1.17;1.17;;;;;;;;;;5048468;28;20041;-67
2024/02/03 02:41:21;;;;;;;1.17;1.17;;;;;;;;;;5036461;28;20029;-67
2024/02/03 02:43:47;;;;;;;2.05;1.38;;;;;;;;;;5032421;28;20025;-67
2024/02/03 02:46:15;;;;;;;1.52;1.35;;;;;;;;;;5048848;28;20104;-67
2024/02/03 02:48:41;;;;;;;1.20;1.20;;;;;;;;;;5046402;28;20028;-67
2024/02/03 02:51:08;;;;;;;1.95;1.85;;;;;;;;;;5047906;28;20040;-67
2024/02/03 02:53:34;;;;;;;1.17;1.17;;;;;;;;;;5032455;28;20021;-68
2024/02/03 02:56:00;;;;;;;1.20;1.20;;;;;;;;;;5053333;28;20032;-68
2024/02/03 02:58:27;;;;;;;1.45;1.35;;;;;;;;;;5050550;28;20056;-67
2024/02/03 03:00:54;;;;;;;2.30;1.30;;;;;;;;;;5024382;28;20116;-69
2024/02/03 03:03:20;;;;;;;1.50;1.40;;;;;;;;;;5033594;28;20623;-68
2024/02/03 03:05:46;;;;;;;1.58;1.40;;;;;;;;;;5037967;28;20035;-67
2024/02/03 03:08:12;;;;;;;0.90;0.90;;;;;;;;;;5052952;28;20554;-67
2024/02/03 03:10:38;;;;;;;1.35;1.35;;;;;;;;;;5042031;28;20467;-67
2024/02/03 03:13:05;;;;;;;1.30;1.30;;;;;;;;;;5047734;28;20369;-68
2024/02/03 03:15:31;;;;;;;1.02;1.02;;;;;;;;;;5051174;28;20008;-68
2024/02/03 03:17:57;;;;;;;2.28;1.10;;;;;;;;;;5037322;28;20066;-67
2024/02/03 03:20:24;;;;;;;1.00;1.00;;;;;;;;;;5042080;28;20536;-66
2024/02/03 03:22:50;;;;;;;1.13;1.13;;;;;;;;;;5047618;28;20036;-67
2024/02/03 03:25:16;;;;;;;1.25;1.15;;;;;;;;;;5050552;28;20067;-66
2024/02/03 03:27:46;;;;;;;1.00;1.00;;;;;;;;;;5047960;28;20034;-70
2024/02/03 03:30:13;;;;;;;1.00;1.00;;;;;;;;;;5040827;28;20136;-67
2024/02/03 03:32:41;;;;;;;1.05;1.05;;;;;;;;;;5054977;28;20146;-66
2024/02/03 03:35:08;;;;;;;1.30;1.20;;;;;;;;;;5035433;28;20022;-68
2024/02/03 03:37:34;;;;;;;0.90;0.90;;;;;;;;;;5050400;28;20036;-68
2024/02/03 03:40:00;;;;;;;1.08;1.08;;;;;;;;;;5037483;28;20465;-67
2024/02/03 03:42:26;;;;;;;1.13;1.13;;;;;;;;;;5052155;28;20548;-69
2024/02/03 03:44:52;;;;;;;0.90;0.90;;;;;;;;;;5028298;28;20071;-68
2024/02/03 03:47:21;;;;;;;1.00;1.00;;;;;;;;;;5055318;28;20052;-67
2024/02/03 03:49:49;;;;;;;1.13;1.13;;;;;;;;;;5020937;28;20030;-66
2024/02/03 03:52:15;;;;;;;0.90;0.90;;;;;;;;;;5029182;28;20025;-66
2024/02/03 03:54:41;;;;;;;0.95;0.95;;;;;;;;;;5031808;28;20074;-70
2024/02/03 03:57:08;;;;;;;0.80;0.80;;;;;;;;;;5027322;28;20025;-67
2024/02/03 03:59:37;;;;;;;0.90;0.90;;;;;;;;;;5047110;28;20484;-66
2024/02/03 04:02:03;;;;;;;1.65;0.95;;;;;;;;;;5025121;28;20033;-67
2024/02/03 04:04:31;;;;;;;0.90;0.90;;;;;;;;;;5045269;28;20106;-68
2024/02/03 04:06:57;;;;;;;0.90;0.90;;;;;;;;;;5046575;28;20107;-68
2024/02/03 04:09:23;;;;;;;0.95;0.95;;;;;;;;;;5044028;28;20033;-67
2024/02/03 04:11:50;;;;;;;1.00;1.00;;;;;;;;;;5043648;28;20404;-67
2024/02/03 04:14:16;;;;;;;1.00;1.00;;;;;;;;;;5038671;28;20059;-67
2024/02/03 04:16:47;;;;;;;0.90;0.90;;;;;;;;;;5026579;28;20036;-68
2024/02/03 04:19:13;;;;;;;1.55;1.10;;;;;;;;;;5018394;28;20370;-69
2024/02/03 04:21:39;;;;;;;0.80;0.80;;;;;;;;;;5045565;28;20025;-68
2024/02/03 04:24:05;;;;;;;1.95;1.00;;;;;;;;;;5030594;28;20552;-68
2024/02/03 04:26:32;;;;;;;1.48;1.00;;;;;;;;;;5036923;28;20388;-69
2024/02/03 04:28:58;;;;;;;0.80;0.80;;;;;;;;;;5040977;28;20037;-68
2024/02/03 04:31:24;;;;;;;1.10;1.10;;;;;;;;;;5029831;28;20415;-69
2024/02/03 04:33:51;;;;;;;1.00;1.00;;;;;;;;;;5040491;28;20051;-69
2024/02/03 04:36:20;;;;;;;0.85;0.85;;;;;;;;;;5050800;28;20044;-69
2024/02/03 04:38:46;;;;;;;1.23;0.98;;;;;;;;;;5027823;28;20036;-68
2024/02/03 04:41:23;;;;;;;1.35;1.10;;;;;;;;;;5047190;28;20021;-68
2024/02/03 04:43:49;;;;;;;1.05;1.05;;;;;;;;;;5030368;28;20279;-68
2024/02/03 04:46:19;;;;;;;0.95;0.95;;;;;;;;;;5024320;28;20037;-69
2024/02/03 04:48:45;;;;;;;1.00;1.00;;;;;;;;;;5028365;28;20041;-69
2024/02/03 04:51:12;;;;;;;0.90;0.90;;;;;;;;;;5031791;28;20033;-70
2024/02/03 04:53:39;;;;;;;1.50;1.40;;;;;;;;;;5040146;28;20035;-69
2024/02/03 04:56:09;;;;;;;1.45;1.00;;;;;;;;;;5042959;28;20029;-69
2024/02/03 04:58:36;;;;;;;1.10;1.10;;;;;;;;;;5026449;28;20045;-69
2024/02/03 05:01:04;;;;;;;1.00;1.00;;;;;;;;;;5031195;28;20040;-70
2024/02/03 05:03:31;;;;;;;1.00;1.00;;;;;;;;;;5029540;28;20748;-68
2024/02/03 05:06:01;;;;;;;0.98;0.98;;;;;;;;;;5028506;28;20087;-70
2024/02/03 05:08:28;;;;;;;1.13;1.10;;;;;;;;;;5031662;28;20140;-69
2024/02/03 05:10:54;;;;;;;1.00;1.00;;;;;;;;;;5022820;28;20056;-68
2024/02/03 05:13:20;;;;;;;1.00;1.00;;;;;;;;;;5047049;28;20452;-70
2024/02/03 05:15:46;;;;;;;0.90;0.90;;;;;;;;;;5032775;28;20036;-67
2024/02/03 05:18:12;;;;;;;1.00;1.00;;;;;;;;;;5041300;28;20026;-69
2024/02/03 05:20:38;;;;;;;0.90;0.90;;;;;;;;;;5035333;28;20044;-72
2024/02/03 05:23:05;;;;;;;1.02;1.02;;;;;;;;;;5047264;28;20051;-69
2024/02/03 05:25:31;;;;;;;1.05;1.05;;;;;;;;;;5049913;28;20033;-69
2024/02/03 05:27:57;;;;;;;1.00;1.00;;;;;;;;;;5033090;28;20033;-70
2024/02/03 05:30:24;;;;;;;1.00;1.00;;;;;;;;;;5052563;28;20570;-69
2024/02/03 05:32:50;;;;;;;1.05;1.05;;;;;;;;;;5022565;28;20026;-69
2024/02/03 05:35:16;;;;;;;0.93;0.93;;;;;;;;;;5039827;28;20032;-70
2024/02/03 05:37:42;;;;;;;1.00;1.00;;;;;;;;;;5043081;28;20553;-70
2024/02/03 05:40:09;;;;;;;0.90;0.90;;;;;;;;;;5049217;28;20025;-69
2024/02/03 05:42:35;;;;;;;0.90;0.90;;;;;;;;;;5042665;28;20028;-69
2024/02/03 05:45:01;;;;;;;1.10;1.10;;;;;;;;;;5042812;28;20029;-69
2024/02/03 05:47:27;;;;;;;1.10;1.10;;;;;;;;;;5044160;28;20140;-69
2024/02/03 05:49:53;;;;;;;1.50;1.40;;;;;;;;;;5042024;28;20040;-69
2024/02/03 05:52:20;;;;;;;2.13;1.00;;;;;;;;;;5031415;28;20025;-69
2024/02/03 05:54:47;;;;;;;1.00;1.00;;;;;;;;;;5040208;28;20391;-70
2024/02/03 05:57:14;;;;;;;1.00;1.00;;;;;;;;;;5050974;28;20479;-70
2024/02/03 05:59:47;;;;;;;1.02;1.02;;;;;;;;;;5048700;28;20036;-69
2024/02/03 06:02:13;;;;;;;1.17;1.17;;;;;;;;;;5047893;28;20040;-69
2024/02/03 06:04:40;;;;;;;1.30;1.20;;;;;;;;;;5043998;28;20098;-70
2024/02/03 06:07:06;;;;;;;0.98;0.98;;;;;;;;;;5044438;28;20075;-69
2024/02/03 06:09:32;;;;;;;1.27;1.20;;;;;;;;;;5031627;28;20112;-70
2024/02/03 06:11:59;;;;;;;1.10;1.10;;;;;;;;;;5032534;28;20067;-69
2024/02/03 06:14:25;;;;;;;1.13;1.13;;;;;;;;;;5048399;28;20071;-69
2024/02/03 06:16:51;;;;;;;1.00;1.00;;;;;;;;;;5032885;28;20049;-69
2024/02/03 06:19:18;;;;;;;1.00;1.00;;;;;;;;;;5051879;28;20028;-69
2024/02/03 06:21:44;;;;;;;1.90;1.35;;;;;;;;;;5043967;28;20420;-70
2024/02/03 06:24:11;;;;;;;1.15;1.15;;;;;;;;;;5049967;28;20030;-69
2024/02/03 06:26:37;;;;;;;1.00;1.00;;;;;;;;;;5031559;28;20025;-69
2024/02/03 06:29:10;;;;;;;1.02;1.02;;;;;;;;;;5045062;28;20400;-69
2024/02/03 06:31:37;;;;;;;1.08;1.08;;;;;;;;;;5045806;28;20511;-70
2024/02/03 06:34:03;;;;;;;1.27;1.23;;;;;;;;;;5046467;28;20028;-69
2024/02/03 06:36:29;;;;;;;2.75;1.58;;;;;;;;;;5043919;28;20104;-69
2024/02/03 06:38:55;;;;;;;1.67;1.58;;;;;;;;;;5031996;28;20032;-70
2024/02/03 06:41:22;;;;;;;1.42;1.42;;;;;;;;;;5047619;28;20393;-69
2024/02/03 06:43:48;;;;;;;1.23;1.23;;;;;;;;;;5047536;28;20044;-69
2024/02/03 06:46:15;;;;;;;1.30;1.30;;;;;;;;;;5034031;28;20033;-69
2024/02/03 06:48:41;;;;;;;1.77;1.30;;;;;;;;;;5027841;28;20037;-70
2024/02/03 06:51:07;;;;;;;1.90;1.55;;;;;;;;;;5051662;28;20484;-70
2024/02/03 06:53:33;;;;;;;1.65;1.55;;;;;;;;;;5046025;28;20369;-69
2024/02/03 06:56:00;;;;;;;3.63;1.42;;;;;;;;;;5042798;28;20040;-69
2024/02/03 06:58:32;;;;;;;3.30;1.70;;;;;;;;;;5031822;28;20021;-71
2024/02/03 07:00:59;;;;;;;1.50;1.40;;;;;;;;;;5033602;28;20128;-69
2024/02/03 07:03:28;;;;;;;1.67;1.58;;;;;;;;;;5043475;28;20108;-68
2024/02/03 07:05:57;;;;;;;1.50;1.40;;;;;;;;;;5047098;28;20078;-69
2024/02/03 07:08:23;;;;;;;2.05;1.42;;;;;;;;;;5025607;28;20315;-71
2024/02/03 07:10:49;;;;;;;2.38;1.27;;;;;;;;;;5020923;28;20490;-69
2024/02/03 07:13:15;;;;;;;1.33;1.33;;;;;;;;;;5036252;28;20029;-69
2024/02/03 07:15:42;;;;;;;1.73;1.42;;;;;;;;;;5034926;28;20017;-70
2024/02/03 07:18:08;;;;;;;1.10;1.10;;;;;;;;;;5046099;28;20017;-69
2024/02/03 07:20:34;;;;;;;1.30;1.20;;;;;;;;;;5050274;28;20456;-69
2024/02/03 07:23:00;;;;;;;1.15;1.05;;;;;;;;;;5029663;28;20045;-70
2024/02/03 07:25:27;;;;;;;1.35;1.35;;;;;;;;;;5031496;28;20025;-70
2024/02/03 07:27:53;;;;;;;2.63;1.20;;;;;;;;;;5035247;28;20032;-69
2024/02/03 07:30:20;;;;;;;1.90;1.40;;;;;;;;;;5043360;28;20033;-73
2024/02/03 07:32:46;;;;;;;1.30;1.20;;;;;;;;;;5036441;28;20090;-70
2024/02/03 07:35:15;;;;;;;1.58;1.40;;;;;;;;;;5045401;28;20026;-69
2024/02/03 07:37:41;;;;;;;2.42;1.50;;;;;;;;;;5041867;28;20296;-70
2024/02/03 07:40:08;;;;;;;3.20;1.25;;;;;;;;;;5028416;28;20108;-68
2024/02/03 07:42:34;;;;;;;1.60;1.15;;;;;;;;;;5046244;28;20029;-71
2024/02/03 07:45:03;;;;;;;1.20;1.20;;;;;;;;;;5026172;28;20509;-72
2024/02/03 07:47:33;;;;;;;1.60;1.50;;;;;;;;;;5028306;28;20033;-76
2024/02/03 07:50:09;;;;;;;1.63;1.52;;;;;;;;;;5044747;28;20036;-70
2024/02/03 07:52:35;;;;;;;2.25;1.38;;;;;;;;;;5035544;28;20033;-70
2024/02/03 07:55:03;;;;;;;1.45;1.35;;;;;;;;;;5033278;28;20021;-69
2024/02/03 07:57:30;;;;;;;4.13;1.52;;;;;;;;;;5034827;28;20017;-70
2024/02/03 07:59:56;;;;;;;3.00;1.17;;;;;;;;;;5025520;28;20025;-70
2024/02/03 08:02:26;;;;;;;1.40;1.30;;;;;;;;;;5049848;28;20048;-70
2024/02/03 08:04:53;;;;;;;2.03;1.38;;;;;;;;;;5039560;28;20024;-70
2024/02/03 08:07:20;;;;;;;3.58;1.83;;;;;;;;;;5038766;28;20037;-70
2024/02/03 08:09:46;;;;;;;2.00;1.75;;;;;;;;;;5017747;28;20065;-70
2024/02/03 08:12:12;;;;;;;1.38;1.38;;;;;;;;;;5026169;28;20037;-73
2024/02/03 08:14:39;;;;;;;3.88;1.38;;;;;;;;;;5035428;28;20025;-71
2024/02/03 08:17:05;;;;;;;1.05;1.05;;;;;;;;;;5043530;28;20482;-71
2024/02/03 08:19:31;;;;;;;1.60;1.50;;;;;;;;;;5035300;28;20030;-71
2024/02/03 08:21:57;;;;;;;3.85;1.80;;;;;;;;;;5040639;28;20022;-70
2024/02/03 08:24:23;;;;;;;1.90;1.60;;;;;;;;;;5031363;28;20104;-71
2024/02/03 08:26:49;;;;;;;9.38;2.17;;;;;;;;;;5043193;28;20021;-71
2024/02/03 08:29:19;;;;;;;3.40;1.40;;;;;;;;;;5023060;28;20029;-71
2024/02/03 08:31:45;;;;;;;5.40;2.40;;;;;;;;;;5027357;28;20056;-72
2024/02/03 08:34:15;;;;;;;3.80;1.77;;;;;;;;;;5032328;28;20025;-67
2024/02/03 08:36:41;;;;;;;1.40;1.30;;;;;;;;;;5015405;28;20396;-69
2024/02/03 08:39:10;;;;;;;1.33;1.20;;;;;;;;;;5022977;28;20599;-68
2024/02/03 08:41:37;;;;;;;5.13;1.70;;;;;;;;;;5041718;28;20735;-70
2024/02/03 08:44:03;;;;;;;2.13;1.27;;;;;;;;;;5040446;28;20491;-68
2024/02/03 08:46:29;;;;;;;3.13;1.50;;;;;;;;;;5040621;28;20136;-68
2024/02/03 08:48:55;;;;;;;2.47;1.42;;;;;;;;;;5041720;28;20521;-69
2024/02/03 08:51:22;;;;;;;1.80;1.33;;;;;;;;;;5029878;28;20041;-75
2024/02/03 08:53:49;;;;;;;2.35;1.70;;;;;;;;;;5020839;28;20032;-74
2024/02/03 08:56:16;;;;;;;3.42;1.23;;;;;;;;;;5024963;28;20653;-76
2024/02/03 08:58:43;;;;;;;2.13;1.45;;;;;;;;;;5029212;28;20032;-76
2024/02/03 09:01:09;;;;;;;1.65;1.55;;;;;;;;;;5042006;28;20372;-74
2024/02/03 09:03:45;;;;;;;1.90;1.10;;;;;;;;;;5035256;28;20544;-75
2024/02/03 09:06:11;;;;;;;5.63;1.83;;;;;;;;;;5030576;28;20033;-77
2024/02/03 09:08:38;;;;;;;3.05;1.40;;;;;;;;;;5018643;28;20592;-73
2024/02/03 09:11:07;;;;;;;2.90;1.60;;;;;;;;;;5044004;28;20111;-76
2024/02/03 09:13:33;;;;;;;7.43;2.03;;;;;;;;;;5033942;28;20079;-74
2024/02/03 09:16:00;;;;;;;6.22;1.60;;;;;;;;;;5040152;28;20038;-73
2024/02/03 09:18:26;;;;;;;10.35;1.80;;;;;;;;;;5042070;28;20090;-77
2024/02/03 09:20:52;;;;;;;5.57;1.75;;;;;;;;;;5043789;28;20648;-74
2024/02/03 09:23:18;;;;;;;2.28;1.35;;;;;;;;;;5046531;28;20036;-74
2024/02/03 09:25:44;;;;;;;1.65;1.55;;;;;;;;;;5019433;28;20960;-72
2024/02/03 09:28:14;;;;;;;3.72;1.85;;;;;;;;;;5023160;28;20489;-72
2024/02/03 09:30:40;;;;;;;5.20;1.50;;;;;;;;;;5035471;28;20052;-73
2024/02/03 09:33:07;;;;;;;1.92;1.55;;;;;;;;;;5044752;28;20056;-72
2024/02/03 09:35:33;;;;;;;5.75;1.63;;;;;;;;;;5039987;28;20021;-73
2024/02/03 09:37:59;;;;;;;6.75;1.48;;;;;;;;;;5037106;28;20143;-74
2024/02/03 09:40:26;;;;;;;10.63;1.80;;;;;;;;;;5034677;28;20082;-73
2024/02/03 09:42:52;;;;;;;3.92;1.58;;;;;;;;;;5040768;28;20032;-73
2024/02/03 09:45:22;;;;;;;4.38;1.55;;;;;;;;;;5025717;28;20100;-74
2024/02/03 09:47:49;;;;;;;6.40;2.15;;;;;;;;;;5033482;28;20033;-75
2024/02/03 09:50:15;;;;;;;5.07;2.03;;;;;;;;;;5026876;28;20064;-73
2024/02/03 09:52:42;;;;;;;3.88;1.77;;;;;;;;;;5045932;28;20179;-73
2024/02/03 09:55:09;;;;;;;5.45;1.65;;;;;;;;;;5029661;28;20108;-74
2024/02/03 09:57:35;;;;;;;4.95;1.50;;;;;;;;;;5039899;28;20054;-75
2024/02/03 10:00:01;;;;;;;6.53;1.80;;;;;;;;;;5042380;28;20022;-74
2024/02/03 10:02:28;;;;;;;5.97;1.63;;;;;;;;;;5044431;28;20986;-75
2024/02/03 10:04:54;;;;;;;5.90;2.05;;;;;;;;;;5044020;28;20022;-74
2024/02/03 10:07:20;;;;;;;2.17;1.55;;;;;;;;;;5037963;28;20389;-74
2024/02/03 10:09:47;;;;;;;3.10;1.85;;;;;;;;;;5032233;28;20031;-74
2024/02/03 10:12:21;;;;;;;6.78;2.38;;;;;;;;;;5015068;28;20179;-75
2024/02/03 10:14:47;;;;;;;2.35;1.50;;;;;;;;;;5047235;28;20062;-72
2024/02/03 10:17:22;;;;;;;6.40;2.70;;;;;;;;;;5054357;28;20399;-76
2024/02/03 10:19:50;;;;;;;10.48;2.30;;;;;;;;;;5031676;28;20025;-67
2024/02/03 10:22:17;;;;;;;3.05;1.90;;;;;;;;;;5027788;28;20038;-68
2024/02/03 10:24:43;;;;;;;3.75;2.53;;;;;;;;;;5039344;28;20084;-65
2024/02/03 10:27:09;;;;;;;7.55;3.20;;;;;;;;;;5041451;28;20495;-66
2024/02/03 10:29:35;;;;;;;2.47;2.25;;;;;;;;;;5032934;28;20029;-65
2024/02/03 10:32:02;;;;;;;6.30;2.22;;;;;;;;;;5051425;28;20036;-66
2024/02/03 10:34:31;;;;;;;6.35;2.60;;;;;;;;;;5020308;28;20429;-66
2024/02/03 10:36:57;;;;;;;8.40;2.50;;;;;;;;;;5044962;28;20538;-66
2024/02/03 10:39:24;;;;;;;9.93;2.00;;;;;;;;;;5035321;28;20052;-74
2024/02/03 10:41:50;;;;;;;7.40;2.08;;;;;;;;;;5028510;28;20025;-74
2024/02/03 10:44:23;;;;;;;3.42;2.33;;;;;;;;;;5041067;28;20041;-73
2024/02/03 10:46:51;;;;;;;6.88;1.63;;;;;;;;;;5033641;28;20029;-74
2024/02/03 10:49:19;;;;;;;4.50;1.85;;;;;;;;;;5025203;28;20053;-73
2024/02/03 10:51:47;;;;;;;7.35;2.47;;;;;;;;;;5048123;28;20595;-74
2024/02/03 10:54:17;;;;;;;7.28;1.70;;;;;;;;;;5034014;28;20029;-74
2024/02/03 10:56:49;;;;;;;4.10;1.80;;;;;;;;;;5014361;28;20029;-73
2024/02/03 10:59:20;;;;;;;7.95;3.00;;;;;;;;;;5025364;28;20613;-74
2024/02/03 11:01:46;;;;;;;2.85;2.28;;;;;;;;;;5049538;28;20310;-73
2024/02/03 11:04:16;;;;;;;6.43;2.60;;;;;;;;;;5025488;28;20034;-74
2024/02/03 11:06:46;;;;;;;4.65;2.60;;;;;;;;;;5034836;28;20119;-74
2024/02/03 11:09:22;;;;;;;8.82;2.47;;;;;;;;;;5038879;28;20053;-74
2024/02/03 11:11:51;;;;;;;3.65;2.08;;;;;;;;;;5031016;28;20037;-75
2024/02/03 11:14:32;;;;;;;15.70;2.67;;;;;;;;;;5020836;28;20033;-75
2024/02/03 11:17:03;;;;;;;5.80;2.13;;;;;;;;;;5045530;28;20029;-68
2024/02/03 11:19:29;;;;;;;3.10;2.28;;;;;;;;;;5025447;28;20074;-67
2024/02/03 11:21:56;;;;;;;3.92;2.20;;;;;;;;;;5044924;28;20059;-69
2024/02/03 11:24:23;;;;;;;4.10;2.25;;;;;;;;;;5026788;28;20025;-67
2024/02/03 11:26:56;;;;;;;3.72;2.00;;;;;;;;;;5037586;28;20051;-67
2024/02/03 11:29:22;;;;;;;4.03;2.70;;;;;;;;;;5024121;28;20445;-68
2024/02/03 11:31:48;;;;;;;5.38;2.60;;;;;;;;;;5041368;28;20039;-67
2024/02/03 11:34:28;;;;;;;4.65;1.90;;;;;;;;;;5022232;28;20546;-67
2024/02/03 11:36:56;;;;;;;4.45;2.60;;;;;;;;;;5041557;28;20017;-68
2024/02/03 11:39:30;;;;;;;6.43;2.53;;;;;;;;;;5022734;28;20029;-72
2024/02/03 11:41:56;;;;;;;4.32;1.90;;;;;;;;;;5047621;28;20486;-70
2024/02/03 11:44:23;;;;;;;5.75;1.80;;;;;;;;;;5039353;28;20025;-69
2024/02/03 11:46:52;;;;;;;3.05;2.13;;;;;;;;;;5038245;28;20026;-69
2024/02/03 11:49:18;;;;;;;4.55;2.08;;;;;;;;;;5017577;28;20025;-72
2024/02/03 11:51:45;;;;;;;4.82;2.20;;;;;;;;;;5032693;28;20064;-68
2024/02/03 11:54:11;;;;;;;4.57;2.45;;;;;;;;;;5020169;28;20056;-68
2024/02/03 11:56:37;;;;;;;4.00;2.20;;;;;;;;;;5040509;28;20032;-68
2024/02/03 11:59:11;;;;;;;2.08;1.90;;;;;;;;;;5035409;28;20111;-68
2024/02/03 12:01:39;;;;;;;3.65;2.40;;;;;;;;;;5025529;28;20029;-70
2024/02/03 12:04:06;;;;;;;5.85;2.30;;;;;;;;;;5032234;28;20507;-68
2024/02/03 12:06:33;;;;;;;4.38;2.40;;;;;;;;;;5023470;28;20083;-67
2024/02/03 12:08:59;;;;;;;5.25;2.28;;;;;;;;;;5024443;28;20395;-67
2024/02/03 12:11:25;;;;;;;3.63;2.20;;;;;;;;;;5039146;28;20025;-70
2024/02/03 12:13:52;;;;;;;11.13;3.17;;;;;;;;;;5028247;28;20108;-68
2024/02/03 12:16:18;;;;;;;3.28;2.58;;;;;;;;;;5037267;28;20026;-68
2024/02/03 12:18:46;;;;;;;2.28;2.08;;;;;;;;;;5025659;28;20017;-69
2024/02/03 12:21:12;;;;;;;2.25;1.90;;;;;;;;;;5041575;28;20037;-68
2024/02/03 12:23:39;;;;;;;2.70;1.98;;;;;;;;;;5042352;28;20515;-68
2024/02/03 12:26:06;;;;;;;1.80;1.70;;;;;;;;;;5022576;28;20044;-68
2024/02/03 12:28:32;;;;;;;2.40;2.17;;;;;;;;;;5022234;28;20078;-68
2024/02/03 12:30:58;;;;;;;2.30;1.58;;;;;;;;;;5023176;28;20087;-68
2024/02/03 12:33:25;;;;;;;3.72;1.58;;;;;;;;;;5030901;28;20836;-69
2024/02/03 12:35:51;;;;;;;1.50;1.40;;;;;;;;;;5044376;28;20025;-68
2024/02/03 12:38:20;;;;;;;1.75;1.45;;;;;;;;;;5039467;28;20028;-69
2024/02/03 12:40:46;;;;;;;3.35;1.70;;;;;;;;;;5047006;28;20574;-68
2024/02/03 12:43:12;;;;;;;2.20;1.75;;;;;;;;;;5042387;28;20442;-68
2024/02/03 12:45:38;;;;;;;4.53;2.80;;;;;;;;;;5028769;28;20029;-68
2024/02/03 12:48:05;;;;;;;5.95;2.22;;;;;;;;;;5037584;28;20056;-68
2024/02/03 12:50:33;;;;;;;7.28;2.55;;;;;;;;;;5045969;28;20029;-69
2024/02/03 12:53:00;;;;;;;3.28;1.67;;;;;;;;;;5044885;28;20480;-69
2024/02/03 12:55:26;;;;;;;4.22;1.60;;;;;;;;;;5023735;28;20035;-67
2024/02/03 12:57:53;;;;;;;5.50;1.90;;;;;;;;;;5039890;28;20422;-68
2024/02/03 13:00:24;;;;;;;7.43;2.40;;;;;;;;;;5040157;28;20087;-68
2024/02/03 13:02:53;;;;;;;9.07;2.50;;;;;;;;;;5034542;28;20037;-67
2024/02/03 13:05:19;;;;;;;8.23;2.55;;;;;;;;;;5030782;28;20048;-69
2024/02/03 13:07:46;;;;;;;7.35;2.47;;;;;;;;;;5043902;28;20037;-67
2024/02/03 13:10:12;;;;;;;5.03;2.53;;;;;;;;;;5045644;28;20056;-68
2024/02/03 13:12:40;;;;;;;13.38;3.80;;;;;;;;;;5041607;28;20057;-67
2024/02/03 13:15:07;;;;;;;6.05;3.20;;;;;;;;;;5035654;28;20392;-68
2024/02/03 13:17:34;;;;;;;6.70;2.67;;;;;;;;;;5040609;28;20021;-68
2024/02/03 13:20:00;;;;;;;7.45;2.40;;;;;;;;;;5033954;28;20039;-69
2024/02/03 13:22:26;;;;;;;5.32;1.80;;;;;;;;;;5024033;28;20044;-70
2024/02/03 13:24:52;;;;;;;3.67;2.03;;;;;;;;;;5040508;28;20558;-66
2024/02/03 13:27:19;;;;;;;5.38;2.40;;;;;;;;;;5043191;28;20020;-70
2024/02/03 13:29:45;;;;;;;3.15;1.63;;;;;;;;;;5025187;28;20043;-69
2024/02/03 13:32:14;;;;;;;6.15;2.47;;;;;;;;;;5039919;28;20051;-68
2024/02/03 13:34:40;;;;;;;6.57;1.95;;;;;;;;;;5022372;28;20037;-69
2024/02/03 13:37:06;;;;;;;3.88;2.83;;;;;;;;;;5039136;28;20159;-68
2024/02/03 13:39:33;;;;;;;3.58;1.90;;;;;;;;;;5028870;28;20025;-69
2024/02/03 13:41:59;;;;;;;9.57;2.22;;;;;;;;;;5022661;28;20569;-70
2024/02/03 13:44:25;;;;;;;2.42;2.30;;;;;;;;;;5022234;28;20032;-70
2024/02/03 13:46:51;;;;;;;4.07;2.08;;;;;;;;;;5033857;28;20040;-70
2024/02/03 13:49:17;;;;;;;5.18;2.00;;;;;;;;;;5040858;28;20449;-71
2024/02/03 13:51:44;;;;;;;8.70;2.63;;;;;;;;;;5039657;28;20106;-70
2024/02/03 13:54:11;;;;;;;5.00;1.58;;;;;;;;;;5024601;28;20032;-70
2024/02/03 13:56:37;;;;;;;3.80;1.75;;;;;;;;;;5020507;28;20037;-70
2024/02/03 13:59:04;;;;;;;4.20;1.58;;;;;;;;;;5037628;28;20017;-68
2024/02/03 14:01:30;;;;;;;4.00;1.98;;;;;;;;;;5024138;28;21511;-71
2024/02/03 14:03:56;;;;;;;5.03;2.17;;;;;;;;;;5045528;28;20032;-70
2024/02/03 14:06:23;;;;;;;4.85;2.40;;;;;;;;;;5042688;28;20033;-70
2024/02/03 14:08:49;;;;;;;5.95;2.33;;;;;;;;;;5041302;28;20036;-70
2024/02/03 14:11:16;;;;;;;9.70;2.25;;;;;;;;;;5040362;28;20033;-70
2024/02/03 14:13:43;;;;;;;2.67;2.05;;;;;;;;;;5045562;28;20029;-70
2024/02/03 14:16:09;;;;;;;5.28;1.70;;;;;;;;;;5037143;28;20036;-70
2024/02/03 14:18:36;;;;;;;4.38;2.80;;;;;;;;;;5042696;28;20485;-69
2024/02/03 14:21:02;;;;;;;3.92;2.58;;;;;;;;;;5042163;28;20106;-69
2024/02/03 14:23:29;;;;;;;5.88;2.35;;;;;;;;;;5043950;28;20089;-70
2024/02/03 14:25:55;;;;;;;3.42;2.03;;;;;;;;;;5041552;28;20023;-69
2024/02/03 14:28:21;;;;;;;3.90;2.03;;;;;;;;;;5035854;28;20487;-69
2024/02/03 14:30:48;;;;;;;2.65;1.90;;;;;;;;;;5043041;28;20040;-69
2024/02/03 14:33:17;;;;;;;4.60;1.83;;;;;;;;;;5041492;28;20493;-69
2024/02/03 14:35:45;;;;;;;3.70;1.75;;;;;;;;;;5045656;28;20029;-69
2024/02/03 14:38:11;;;;;;;5.07;1.80;;;;;;;;;;5027847;28;20104;-70
2024/02/03 14:40:37;;;;;;;5.20;2.00;;;;;;;;;;5040464;28;20412;-70
2024/02/03 14:43:06;;;;;;;5.97;2.58;;;;;;;;;;5041476;28;20460;-70